Shallotte, NC

7:02 PM EDT on July 04, 2015 (GMT -0400)
Shallotte Point | | Change Station
CLOSE
Current Station
Personal Weather Station
Location: Shallotte, NC
Elevation: 42 ft
Nearby Weather Stations

Elev 42 ft 33.93 °N, 78.37 °W | Updated 18 seconds ago

Clear
Clear
81.4 °F
Feels Like 88 °F
N
3.0
Wind Variable Wind from SSW
Gusts 6.0 mph

Today
High -- | Low -- °F
--% Chance of Precip.
Yesterday
High -- | Low -- °F
Precip. -- in
6:07 AM 8:28 PM
Waning Gibbous, 89% visible
Pressure 30.03 in
Visibility 10.0 miles
Clouds Clear
Heat Index 88 °F
Dew Point 76 °F
Humidity 84%
Rainfall 0.00 in
Snow Depth Not available.
UV 1 out of 12
Pollen 4.00 out of 12
Air Quality Not available.
Flu Activity Not available.
METAR KCRE 042253Z 20015KT 10SM CLR 29/24 A3003 RMK AO1 SLP168 T02890239

More Conditions Fewer Conditions

Pressure 30.03 in
Visibility 10.0 miles
Clouds Clear
Heat Index 88 °F
Dew Point 76 °F
Humidity 84%
Rainfall 0.00 in
Snow Depth Not available.
UV 1 out of 12
Pollen 4.00 out of 12
Air Quality Not available.
Flu Activity Not available.
METAR KCRE 042253Z 20015KT 10SM CLR 29/24 A3003 RMK AO1 SLP168 T02890239

More Conditions Fewer Conditions

10-Day Weather Forecast

×

Almanac

Astronomy

Jul. 04, 2015 Rise Set
Actual Time
Civil Twilight
Nautical Twilight
Astronomical Twilight
Moon
Length of Visible Light
Length of Day
Tomorrow will be .
, % of the Moon is Illuminated

Today's Extremes

State Highs State Lows

Community

WunderPhotos

Upload Photos

1,835,112 photos uploaded!

WunderBlogs® & News

Nearby

Air Quality

  Air Quality AQ Index Pollutant
Not available.

Snow Depth

Station Depth Elevation

Earthquake Activity

City Distance Mag. Time & Date
Minimum magnitude displayed is 2.5.

Coastal Water Temperatures

Place Temperature

Stations

Nearby Weather Stations

Station Location Temp. Windchill Dew Point Humidity Wind Precip. Elev Updated Type